sensor_id;sensor_type;location;lat;lon;timestamp;P1;P2;P0
55076;PMS7003;40971;44.702;11.030;2023-06-04T00:07:27;19.67;19.67;14.67
55076;PMS7003;40971;44.702;11.030;2023-06-04T00:17:30;21.60;18.60;14.00
55076;PMS7003;40971;44.702;11.030;2023-06-04T00:27:35;26.78;25.22;14.78
55076;PMS7003;40971;44.702;11.030;2023-06-04T00:37:37;24.20;22.40;14.00
55076;PMS7003;40971;44.702;11.030;2023-06-04T00:47:38;25.67;22.67;16.00
55076;PMS7003;40971;44.702;11.030;2023-06-04T00:57:39;21.50;20.50;15.50
55076;PMS7003;40971;44.702;11.030;2023-06-04T01:07:41;24.67;22.00;16.00
55076;PMS7003;40971;44.702;11.030;2023-06-04T01:17:48;25.50;22.00;15.50
55076;PMS7003;40971;44.702;11.030;2023-06-04T01:27:55;26.00;26.00;12.80
55076;PMS7003;40971;44.702;11.030;2023-06-04T01:37:59;24.33;23.00;17.00
55076;PMS7003;40971;44.702;11.030;2023-06-04T01:48:02;24.50;22.00;15.50
55076;PMS7003;40971;44.702;11.030;2023-06-04T01:58:04;25.40;25.40;15.60
55076;PMS7003;40971;44.702;11.030;2023-06-04T02:08:08;22.40;22.40;16.00
55076;PMS7003;40971;44.702;11.030;2023-06-04T02:18:16;26.75;25.00;17.63
55076;PMS7003;40971;44.702;11.030;2023-06-04T02:28:19;26.00;21.50;16.00
55076;PMS7003;40971;44.702;11.030;2023-06-04T02:38:22;26.00;25.00;16.50
55076;PMS7003;40971;44.702;11.030;2023-06-04T02:48:27;28.11;28.11;16.44
55076;PMS7003;40971;44.702;11.030;2023-06-04T02:58:29;26.00;24.67;16.33
55076;PMS7003;40971;44.702;11.030;2023-06-04T03:08:33;33.00;29.67;19.67
55076;PMS7003;40971;44.702;11.030;2023-06-04T03:18:36;29.33;29.33;19.67
55076;PMS7003;40971;44.702;11.030;2023-06-04T03:28:39;25.67;25.67;19.33
55076;PMS7003;40971;44.702;11.030;2023-06-04T03:38:41;28.00;27.00;16.00
55076;PMS7003;40971;44.702;11.030;2023-06-04T03:48:45;22.63;20.50;14.00
55076;PMS7003;40971;44.702;11.030;2023-06-04T03:58:48;32.67;27.67;18.33
55076;PMS7003;40971;44.702;11.030;2023-06-04T04:08:49;27.00;25.00;18.50
55076;PMS7003;40971;44.702;11.030;2023-06-04T04:18:51;20.00;19.50;15.00
55076;PMS7003;40971;44.702;11.030;2023-06-04T04:28:56;25.44;24.44;16.33
55076;PMS7003;40971;44.702;11.030;2023-06-04T04:38:59;29.33;29.33;19.33
55076;PMS7003;40971;44.702;11.030;2023-06-04T04:49:04;36.67;33.89;22.44
55076;PMS7003;40971;44.702;11.030;2023-06-04T04:59:06;39.00;32.00;24.33
55076;PMS7003;40971;44.702;11.030;2023-06-04T05:09:08;31.00;29.33;21.00
55076;PMS7003;40971;44.702;11.030;2023-06-04T05:19:11;34.67;33.67;23.00
55076;PMS7003;40971;44.702;11.030;2023-06-04T05:29:15;33.11;31.22;21.44
55076;PMS7003;40971;44.702;11.030;2023-06-04T05:39:20;35.00;34.25;23.88
55076;PMS7003;40971;44.702;11.030;2023-06-04T05:49:25;36.33;35.33;22.33
55076;PMS7003;40971;44.702;11.030;2023-06-04T05:59:28;35.00;32.00;22.00
55076;PMS7003;40971;44.702;11.030;2023-06-04T06:09:31;34.00;32.67;22.00
55076;PMS7003;40971;44.702;11.030;2023-06-04T06:19:36;39.33;34.78;20.78
55076;PMS7003;40971;44.702;11.030;2023-06-04T06:29:40;40.50;35.00;23.50
55076;PMS7003;40971;44.702;11.030;2023-06-04T06:39:42;41.00;37.00;25.33
55076;PMS7003;40971;44.702;11.030;2023-06-04T06:49:46;41.00;37.75;25.13
55076;PMS7003;40971;44.702;11.030;2023-06-04T06:59:48;46.50;38.25;24.75
55076;PMS7003;40971;44.702;11.030;2023-06-04T07:09:53;41.00;36.75;25.50
55076;PMS7003;40971;44.702;11.030;2023-06-04T07:19:55;50.50;43.50;27.00
55076;PMS7003;40971;44.702;11.030;2023-06-04T07:29:56;40.00;36.67;24.00
55076;PMS7003;40971;44.702;11.030;2023-06-04T07:39:58;26.67;26.67;17.00
55076;PMS7003;40971;44.702;11.030;2023-06-04T07:49:59;38.67;35.67;23.67
55076;PMS7003;40971;44.702;11.030;2023-06-04T08:00:02;43.50;37.00;25.00
55076;PMS7003;40971;44.702;11.030;2023-06-04T08:10:08;39.67;36.50;24.83
55076;PMS7003;40971;44.702;11.030;2023-06-04T08:20:09;45.00;37.50;25.00
55076;PMS7003;40971;44.702;11.030;2023-06-04T08:30:12;41.50;37.50;25.50
55076;PMS7003;40971;44.702;11.030;2023-06-04T08:40:15;40.67;36.67;24.33
55076;PMS7003;40971;44.702;11.030;2023-06-04T08:50:23;38.63;33.75;22.00
55076;PMS7003;40971;44.702;11.030;2023-06-04T09:00:27;40.25;36.00;25.00
55076;PMS7003;40971;44.702;11.030;2023-06-04T09:10:29;40.00;36.67;24.00
55076;PMS7003;40971;44.702;11.030;2023-06-04T09:20:32;47.00;37.50;26.00
55076;PMS7003;40971;44.702;11.030;2023-06-04T09:30:36;43.13;37.13;23.38
55076;PMS7003;40971;44.702;11.030;2023-06-04T09:40:38;37.00;33.00;23.67
55076;PMS7003;40971;44.702;11.030;2023-06-04T09:50:40;39.00;34.50;24.50
55076;PMS7003;40971;44.702;11.030;2023-06-04T10:00:45;38.50;35.50;24.50
55076;PMS7003;40971;44.702;11.030;2023-06-04T10:10:52;32.50;31.50;21.75
55076;PMS7003;40971;44.702;11.030;2023-06-04T10:20:58;36.50;33.33;24.00
55076;PMS7003;40971;44.702;11.030;2023-06-04T10:31:01;31.67;30.67;22.67
55076;PMS7003;40971;44.702;11.030;2023-06-04T10:41:12;37.00;33.75;23.00
55076;PMS7003;40971;44.702;11.030;2023-06-04T10:51:16;27.00;26.00;20.00
55076;PMS7003;40971;44.702;11.030;2023-06-04T11:01:34;27.67;26.33;20.00
55076;PMS7003;40971;44.702;11.030;2023-06-04T11:11:36;28.00;28.00;20.00
55076;PMS7003;40971;44.702;11.030;2023-06-04T11:21:38;29.00;29.00;20.00
55076;PMS7003;40971;44.702;11.030;2023-06-04T11:31:45;32.75;31.25;23.00
55076;PMS7003;40971;44.702;11.030;2023-06-04T11:41:50;25.50;25.50;20.50
55076;PMS7003;40971;44.702;11.030;2023-06-04T11:51:53;22.33;22.33;18.33
55076;PMS7003;40971;44.702;11.030;2023-06-04T12:01:56;24.50;22.25;18.00
55076;PMS7003;40971;44.702;11.030;2023-06-04T12:22:09;24.50;24.50;19.25
55076;PMS7003;40971;44.702;11.030;2023-06-04T12:32:11;22.25;21.75;15.00
55076;PMS7003;40971;44.702;11.030;2023-06-04T12:42:13;23.00;23.00;17.00
55076;PMS7003;40971;44.702;11.030;2023-06-04T12:52:17;22.88;22.88;16.63
55076;PMS7003;40971;44.702;11.030;2023-06-04T13:02:19;23.00;23.00;17.00
55076;PMS7003;40971;44.702;11.030;2023-06-04T13:12:21;24.75;23.00;17.00
55076;PMS7003;40971;44.702;11.030;2023-06-04T13:22:24;22.67;22.00;17.67
55076;PMS7003;40971;44.702;11.030;2023-06-04T13:32:26;24.50;24.00;20.00
55076;PMS7003;40971;44.702;11.030;2023-06-04T13:42:28;21.33;20.33;16.67
55076;PMS7003;40971;44.702;11.030;2023-06-04T13:52:31;19.00;19.00;17.00
55076;PMS7003;40971;44.702;11.030;2023-06-04T14:02:33;22.00;21.33;16.33
55076;PMS7003;40971;44.702;11.030;2023-06-04T14:12:34;27.67;25.00;17.67
55076;PMS7003;40971;44.702;11.030;2023-06-04T14:22:39;22.33;22.33;17.44
55076;PMS7003;40971;44.702;11.030;2023-06-04T14:32:41;24.67;24.33;19.33
55076;PMS7003;40971;44.702;11.030;2023-06-04T14:42:45;24.75;24.63;19.88
55076;PMS7003;40971;44.702;11.030;2023-06-04T14:52:46;25.33;25.33;21.00
55076;PMS7003;40971;44.702;11.030;2023-06-04T15:02:48;26.00;26.00;21.00
55076;PMS7003;40971;44.702;11.030;2023-06-04T15:12:49;31.67;30.67;21.67
55076;PMS7003;40971;44.702;11.030;2023-06-04T15:22:51;31.75;29.75;21.00
55076;PMS7003;40971;44.702;11.030;2023-06-04T15:32:53;31.33;30.33;22.00
55076;PMS7003;40971;44.702;11.030;2023-06-04T15:42:55;34.00;33.00;23.00
55076;PMS7003;40971;44.702;11.030;2023-06-04T15:52:56;39.00;35.00;23.00
55076;PMS7003;40971;44.702;11.030;2023-06-04T16:02:58;4.33;4.33;3.00
55076;PMS7003;40971;44.702;11.030;2023-06-04T16:13:01;6.40;5.80;3.80
55076;PMS7003;40971;44.702;11.030;2023-06-04T16:23:04;8.83;8.83;7.00
55076;PMS7003;40971;44.702;11.030;2023-06-04T16:33:08;8.00;7.33;4.00
55076;PMS7003;40971;44.702;11.030;2023-06-04T16:43:10;7.50;7.50;6.00
55076;PMS7003;40971;44.702;11.030;2023-06-04T16:53:13;7.50;7.50;6.00
55076;PMS7003;40971;44.702;11.030;2023-06-04T17:03:15;8.00;7.00;6.00
55076;PMS7003;40971;44.702;11.030;2023-06-04T17:13:18;10.00;8.67;7.00
55076;PMS7003;40971;44.702;11.030;2023-06-04T17:23:23;8.50;8.50;6.00
55076;PMS7003;40971;44.702;11.030;2023-06-04T17:33:25;8.00;8.00;7.00
55076;PMS7003;40971;44.702;11.030;2023-06-04T17:43:27;8.00;8.00;7.50
55076;PMS7003;40971;44.702;11.030;2023-06-04T17:53:30;9.00;9.00;6.00
55076;PMS7003;40971;44.702;11.030;2023-06-04T18:03:31;8.33;8.33;7.00
55076;PMS7003;40971;44.702;11.030;2023-06-04T18:13:34;7.00;7.00;6.00
55076;PMS7003;40971;44.702;11.030;2023-06-04T18:23:37;6.83;6.83;5.67
55076;PMS7003;40971;44.702;11.030;2023-06-04T18:33:48;13.20;9.20;7.40
55076;PMS7003;40971;44.702;11.030;2023-06-04T18:43:52;8.33;8.33;6.00
55076;PMS7003;40971;44.702;11.030;2023-06-04T18:53:57;7.50;7.50;6.50
55076;PMS7003;40971;44.702;11.030;2023-06-04T19:04:00;11.00;10.50;8.00
55076;PMS7003;40971;44.702;11.030;2023-06-04T19:14:01;12.00;9.67;8.00
55076;PMS7003;40971;44.702;11.030;2023-06-04T19:24:04;8.33;8.00;7.00
55076;PMS7003;40971;44.702;11.030;2023-06-04T19:34:08;12.50;11.00;8.00
55076;PMS7003;40971;44.702;11.030;2023-06-04T19:44:09;15.67;14.00;9.00
55076;PMS7003;40971;44.702;11.030;2023-06-04T19:54:13;15.29;13.00;9.00
55076;PMS7003;40971;44.702;11.030;2023-06-04T20:04:17;17.00;16.57;11.71
55076;PMS7003;40971;44.702;11.030;2023-06-04T20:14:18;17.33;14.00;10.00
55076;PMS7003;40971;44.702;11.030;2023-06-04T20:24:20;18.80;15.60;11.40
55076;PMS7003;40971;44.702;11.030;2023-06-04T20:34:23;21.00;21.00;13.00
55076;PMS7003;40971;44.702;11.030;2023-06-04T20:44:26;18.40;12.80;10.20
55076;PMS7003;40971;44.702;11.030;2023-06-04T20:54:29;16.00;16.00;10.00
55076;PMS7003;40971;44.702;11.030;2023-06-04T21:04:31;15.33;15.00;11.00
55076;PMS7003;40971;44.702;11.030;2023-06-04T21:14:34;19.71;16.86;10.86
55076;PMS7003;40971;44.702;11.030;2023-06-04T21:24:37;17.33;17.33;12.00
55076;PMS7003;40971;44.702;11.030;2023-06-04T21:34:38;17.33;16.00;11.00
55076;PMS7003;40971;44.702;11.030;2023-06-04T21:44:41;13.00;13.00;8.33
55076;PMS7003;40971;44.702;11.030;2023-06-04T21:54:43;17.00;14.00;9.80
55076;PMS7003;40971;44.702;11.030;2023-06-04T22:04:44;23.33;21.00;13.00
55076;PMS7003;40971;44.702;11.030;2023-06-04T22:14:46;22.00;20.00;16.00
55076;PMS7003;40971;44.702;11.030;2023-06-04T22:24:48;17.80;17.80;12.80
55076;PMS7003;40971;44.702;11.030;2023-06-04T22:34:49;25.60;21.20;12.60
55076;PMS7003;40971;44.702;11.030;2023-06-04T22:44:51;19.80;18.80;12.40
55076;PMS7003;40971;44.702;11.030;2023-06-04T22:54:52;17.40;14.80;12.00
55076;PMS7003;40971;44.702;11.030;2023-06-04T23:04:54;19.00;17.00;13.00
55076;PMS7003;40971;44.702;11.030;2023-06-04T23:14:55;23.00;18.33;12.00
55076;PMS7003;40971;44.702;11.030;2023-06-04T23:24:57;20.67;20.67;12.67
55076;PMS7003;40971;44.702;11.030;2023-06-04T23:34:58;15.60;12.80;10.20
55076;PMS7003;40971;44.702;11.030;2023-06-04T23:45:00;19.67;18.33;13.33
55076;PMS7003;40971;44.702;11.030;2023-06-04T23:55:02;19.00;19.00;15.00
